Time;durP1;ratioP1;P1;durP2;ratioP2;P2;SDS_P1;SDS_P2;PMS_P1;PMS_P2;Temp;Humidity;BMP_temperature;BMP_pressure;BME280_temperature;BME280_humidity;BME280_pressure;Samples;Min_cycle;Max_cycle;Signal;HPM_P1;HPM_P2
2021/12/17 00:05:11;;;;;;;8.07;1.60;;;9.80;95.80;;;;;;4807030;29;20169;-76
2021/12/17 00:07:39;;;;;;;6.55;1.85;;;9.80;95.70;;;;;;4807578;29;20774;-75
2021/12/17 00:10:17;;;;;;;5.80;1.48;;;9.70;95.70;;;;;;4807426;29;20154;-75
2021/12/17 00:12:45;;;;;;;8.93;2.70;;;9.70;95.90;;;;;;4821802;29;20058;-75
2021/12/17 00:15:13;;;;;;;6.93;1.83;;;9.70;95.70;;;;;;4808168;29;20069;-76
2021/12/17 00:17:50;;;;;;;5.85;1.73;;;9.70;95.70;;;;;;4807262;29;20047;-75
2021/12/17 00:53:16;;;;;;;5.57;1.52;;;9.70;95.80;;;;;;4807861;29;20063;-76
2021/12/17 00:55:44;;;;;;;6.80;2.13;;;9.70;95.80;;;;;;4793494;29;20055;-76
2021/12/17 00:58:11;;;;;;;5.57;1.80;;;9.70;95.80;;;;;;4799795;29;20057;-76
2021/12/17 01:00:38;;;;;;;7.15;2.20;;;9.70;95.80;;;;;;4824335;29;20076;-76
2021/12/17 01:03:05;;;;;;;9.05;2.47;;;9.70;95.70;;;;;;4777410;29;20115;-76
2021/12/17 01:05:34;;;;;;;8.07;2.10;;;9.70;95.70;;;;;;4800838;29;20058;-76
2021/12/17 01:08:04;;;;;;;8.27;2.08;;;9.60;95.70;;;;;;4807286;29;20050;-76
2021/12/17 01:10:41;;;;;;;6.85;2.35;;;9.60;95.90;;;;;;4826719;29;20054;-76
2021/12/17 01:13:37;;;;;;;7.03;2.13;;;9.60;95.70;;;;;;4809658;29;20050;-76
2021/12/17 01:16:13;;;;;;;5.93;1.50;;;9.60;95.70;;;;;;4809828;29;20055;-76
2021/12/17 01:21:41;;;;;;;6.50;1.88;;;9.60;95.80;;;;;;4791574;29;20078;-76
2021/12/17 01:24:48;;;;;;;8.07;2.63;;;9.60;95.80;;;;;;4818176;29;20063;-76
2021/12/17 01:42:20;;;;;;;9.73;1.75;;;9.60;95.80;;;;;;4790730;29;20067;-76
2021/12/17 01:44:47;;;;;;;7.03;1.83;;;9.60;95.70;;;;;;4799087;29;20127;-76
2021/12/17 01:47:15;;;;;;;7.55;2.30;;;9.60;95.70;;;;;;4802896;29;20055;-76
2021/12/17 02:00:48;;;;;;;4.75;1.23;;;9.60;95.80;;;;;;4825128;29;20185;-76
2021/12/17 02:03:16;;;;;;;5.65;1.60;;;9.60;95.80;;;;;;4810901;29;20061;-76
2021/12/17 02:05:45;;;;;;;5.05;1.33;;;9.60;95.80;;;;;;4810804;29;20054;-76
2021/12/17 02:08:12;;;;;;;3.10;1.05;;;9.60;95.80;;;;;;4801211;29;20539;-76
2021/12/17 02:32:09;;;;;;;4.60;1.25;;;9.50;95.80;;;;;;4824540;29;20049;-75
2021/12/17 02:37:12;;;;;;;4.50;0.80;;;9.60;95.80;;;;;;4825048;29;20066;-76
2021/12/17 02:45:34;;;;;;;2.55;0.90;;;9.60;95.80;;;;;;4825644;29;20055;-75
2021/12/17 02:48:14;;;;;;;3.03;0.80;;;9.60;95.80;;;;;;4814934;29;20047;-75
2021/12/17 02:50:51;;;;;;;2.58;0.68;;;9.60;95.70;;;;;;4816298;29;20065;-75
2021/12/17 02:53:19;;;;;;;3.85;1.20;;;9.60;95.70;;;;;;4822777;29;20046;-77
2021/12/17 02:56:02;;;;;;;4.28;1.27;;;9.60;95.80;;;;;;4809332;29;20115;-76
2021/12/17 02:58:32;;;;;;;3.67;0.70;;;9.60;95.70;;;;;;4811428;29;20099;-76
2021/12/17 03:01:03;;;;;;;3.45;0.82;;;9.60;95.70;;;;;;4811435;29;20771;-76
2021/12/17 03:03:32;;;;;;;4.45;1.05;;;9.60;95.70;;;;;;4808580;29;20065;-76
2021/12/17 03:05:59;;;;;;;4.70;1.45;;;9.60;95.70;;;;;;4805725;29;20051;-76
2021/12/17 03:08:27;;;;;;;4.60;1.02;;;9.60;95.70;;;;;;4806890;29;20053;-76
2021/12/17 03:10:54;;;;;;;4.80;1.50;;;9.60;95.70;;;;;;4810830;29;20144;-76
2021/12/17 03:13:25;;;;;;;3.90;1.45;;;9.60;95.70;;;;;;4800338;29;20127;-76
2021/12/17 03:16:01;;;;;;;3.00;1.20;;;9.60;95.70;;;;;;4807150;29;20433;-76
2021/12/17 03:18:57;;;;;;;3.60;0.93;;;9.60;95.80;;;;;;4808221;29;20114;-76
2021/12/17 03:24:01;;;;;;;4.25;1.00;;;9.60;95.80;;;;;;4809549;29;20059;-76
2021/12/17 03:26:30;;;;;;;3.42;1.20;;;9.60;95.80;;;;;;4809443;29;20367;-75
2021/12/17 03:29:02;;;;;;;4.20;1.08;;;9.60;95.80;;;;;;4791682;29;20129;-76
2021/12/17 03:31:30;;;;;;;3.47;0.85;;;9.60;95.80;;;;;;4815283;29;20694;-76
2021/12/17 03:34:23;;;;;;;6.53;1.30;;;9.60;95.70;;;;;;4825076;29;20046;-76
2021/12/17 03:36:54;;;;;;;3.05;0.85;;;9.60;95.70;;;;;;4807688;29;20051;-76
2021/12/17 03:39:26;;;;;;;4.55;1.48;;;9.60;95.90;;;;;;4815274;29;20458;-75
2021/12/17 03:41:56;;;;;;;6.28;1.55;;;9.60;95.60;;;;;;4810230;29;20065;-75
2021/12/17 03:44:34;;;;;;;3.67;1.00;;;9.60;95.60;;;;;;4814972;29;20100;-76
2021/12/17 03:47:04;;;;;;;4.03;1.15;;;9.60;95.70;;;;;;4792830;29;20389;-76
2021/12/17 03:49:43;;;;;;;2.40;0.90;;;9.60;95.70;;;;;;4807403;29;20049;-75
2021/12/17 03:52:11;;;;;;;4.00;1.27;;;9.60;95.70;;;;;;4793468;29;20051;-76
2021/12/17 03:54:41;;;;;;;3.63;1.20;;;9.60;95.80;;;;;;4821541;29;20432;-76
2021/12/17 03:57:11;;;;;;;4.30;1.00;;;9.60;95.80;;;;;;4799156;29;20043;-75
2021/12/17 03:59:48;;;;;;;5.10;1.02;;;9.60;95.80;;;;;;4796597;29;21175;-76
2021/12/17 04:02:19;;;;;;;4.07;1.08;;;9.60;95.80;;;;;;4815925;29;20062;-76
2021/12/17 04:04:47;;;;;;;3.58;1.08;;;9.60;95.80;;;;;;4790529;29;20522;-76
2021/12/17 04:07:34;;;;;;;4.28;1.30;;;9.60;95.80;;;;;;4804883;29;20107;-76
2021/12/17 04:10:22;;;;;;;4.60;1.58;;;9.60;95.80;;;;;;4809153;29;20220;-76
2021/12/17 04:13:14;;;;;;;4.15;1.00;;;9.60;95.80;;;;;;4824325;29;20054;-76
2021/12/17 04:15:42;;;;;;;4.03;1.10;;;9.60;95.80;;;;;;4819721;29;20055;-76
2021/12/17 04:18:10;;;;;;;2.80;0.70;;;9.60;95.80;;;;;;4804374;29;20142;-76
2021/12/17 04:20:37;;;;;;;4.57;1.10;;;9.60;95.80;;;;;;4809918;29;20047;-76
2021/12/17 04:23:06;;;;;;;3.72;0.95;;;9.60;95.80;;;;;;4807666;29;20063;-76
2021/12/17 04:25:33;;;;;;;3.63;1.10;;;9.60;95.80;;;;;;4822898;29;20512;-76
2021/12/17 04:28:01;;;;;;;2.55;0.65;;;9.60;95.80;;;;;;4824074;29;20522;-76
2021/12/17 04:30:30;;;;;;;4.35;1.30;;;9.60;95.80;;;;;;4808083;29;20039;-76
2021/12/17 04:32:58;;;;;;;4.53;1.30;;;9.60;95.80;;;;;;4806151;29;20053;-76
2021/12/17 04:35:27;;;;;;;3.92;1.02;;;9.60;95.80;;;;;;4809546;29;20079;-76
2021/12/17 04:37:56;;;;;;;4.82;1.23;;;9.60;95.80;;;;;;4824559;29;20470;-76
2021/12/17 04:40:25;;;;;;;4.88;1.00;;;9.60;95.80;;;;;;4806620;29;20403;-76
2021/12/17 04:43:15;;;;;;;3.95;1.30;;;9.60;95.80;;;;;;4789009;29;20095;-76
2021/12/17 04:45:59;;;;;;;2.42;1.00;;;9.60;95.80;;;;;;4805999;29;20140;-75
2021/12/17 04:59:40;;;;;;;4.15;1.17;;;9.60;95.80;;;;;;4808942;29;20062;-78
2021/12/17 05:02:07;;;;;;;3.83;1.20;;;9.60;95.80;;;;;;4789990;29;20100;-78
2021/12/17 05:04:44;;;;;;;4.68;0.82;;;9.60;95.80;;;;;;4803894;29;20142;-78
2021/12/17 05:07:14;;;;;;;3.42;1.10;;;9.60;95.80;;;;;;4807694;29;20051;-77
2021/12/17 05:10:04;;;;;;;5.10;1.10;;;9.60;95.80;;;;;;4805056;29;20146;-78
2021/12/17 05:21:00;;;;;;;2.22;0.60;;;9.60;96.10;;;;;;4822658;29;20055;-75
2021/12/17 05:23:35;;;;;;;3.20;0.65;;;9.60;95.80;;;;;;4821027;29;20525;-77
2021/12/17 05:26:15;;;;;;;3.00;0.57;;;9.60;95.80;;;;;;4824773;29;20055;-80
2021/12/17 05:28:52;;;;;;;3.25;0.80;;;9.60;95.80;;;;;;4811240;29;20050;-80
2021/12/17 05:31:22;;;;;;;2.92;0.70;;;9.60;95.80;;;;;;4795494;29;20103;-80
2021/12/17 05:33:54;;;;;;;3.78;0.85;;;9.60;95.90;;;;;;4798237;29;20050;-80
2021/12/17 05:36:26;;;;;;;3.63;1.02;;;9.60;95.80;;;;;;4823055;29;20045;-81
2021/12/17 05:39:06;;;;;;;4.07;1.17;;;9.60;95.80;;;;;;4797570;29;20137;-79
2021/12/17 05:41:37;;;;;;;2.38;0.60;;;9.60;95.80;;;;;;4812290;29;20050;-78
2021/12/17 05:44:24;;;;;;;4.13;1.20;;;9.60;95.80;;;;;;4816511;29;20066;-78
2021/12/17 05:46:52;;;;;;;4.35;1.23;;;9.60;95.80;;;;;;4794011;29;20637;-78
2021/12/17 05:49:24;;;;;;;3.72;0.98;;;9.60;95.80;;;;;;4809061;29;20047;-77
2021/12/17 05:51:53;;;;;;;3.67;0.95;;;9.60;96.00;;;;;;4809636;29;20062;-76
2021/12/17 05:54:22;;;;;;;4.20;1.10;;;9.70;95.80;;;;;;4803358;29;20071;-76
2021/12/17 05:56:52;;;;;;;4.47;1.30;;;9.60;95.80;;;;;;4824331;29;20521;-76
2021/12/17 05:59:21;;;;;;;3.42;0.70;;;9.60;95.80;;;;;;4809877;29;21396;-75
2021/12/17 06:01:51;;;;;;;4.05;0.80;;;9.60;95.80;;;;;;4796136;29;20066;-76
2021/12/17 06:04:19;;;;;;;4.38;1.17;;;9.70;95.80;;;;;;4810026;29;20962;-76
2021/12/17 06:06:51;;;;;;;4.05;1.10;;;9.60;95.80;;;;;;4794187;29;20122;-75
2021/12/17 06:09:21;;;;;;;3.10;0.80;;;9.70;95.80;;;;;;4777097;29;20053;-76
2021/12/17 06:11:48;;;;;;;4.22;0.95;;;9.60;95.80;;;;;;4803261;29;20084;-76
2021/12/17 06:14:17;;;;;;;4.38;0.90;;;9.60;95.70;;;;;;4810557;29;20054;-76
2021/12/17 06:16:44;;;;;;;4.65;1.10;;;9.70;95.80;;;;;;4812492;29;20107;-76
2021/12/17 06:19:19;;;;;;;4.03;1.00;;;9.70;95.80;;;;;;4795141;29;20097;-76
2021/12/17 06:21:47;;;;;;;4.18;1.23;;;9.70;95.80;;;;;;4778576;29;20527;-76
2021/12/17 06:24:15;;;;;;;4.47;0.85;;;9.60;95.70;;;;;;4806469;29;20086;-76
2021/12/17 06:26:42;;;;;;;3.63;0.95;;;9.60;95.70;;;;;;4807119;29;20055;-76
2021/12/17 06:29:09;;;;;;;4.45;1.45;;;9.60;95.70;;;;;;4808333;29;20064;-75
2021/12/17 06:31:37;;;;;;;3.42;1.02;;;9.70;95.80;;;;;;4793647;29;20492;-76
2021/12/17 06:34:05;;;;;;;3.67;0.90;;;9.60;95.70;;;;;;4792708;29;20066;-76
2021/12/17 06:36:34;;;;;;;3.95;1.00;;;9.70;95.80;;;;;;4793970;29;20047;-76
2021/12/17 06:39:01;;;;;;;3.85;0.90;;;9.60;95.70;;;;;;4808475;29;20059;-76
2021/12/17 06:41:32;;;;;;;4.03;1.17;;;9.60;95.70;;;;;;4806089;29;20076;-76
2021/12/17 06:44:00;;;;;;;4.85;1.23;;;9.60;95.80;;;;;;4793985;29;20055;-76
2021/12/17 06:46:47;;;;;;;3.55;1.30;;;9.60;95.70;;;;;;4823758;29;20054;-76
2021/12/17 06:49:31;;;;;;;4.35;1.20;;;9.60;95.70;;;;;;4795458;29;20047;-76
2021/12/17 07:10:16;;;;;;;3.63;0.80;;;9.60;95.80;;;;;;4820884;29;20051;-76
2021/12/17 07:34:42;;;;;;;3.17;1.00;;;9.60;95.80;;;;;;4818532;29;20931;-76
2021/12/17 07:39:41;;;;;;;4.82;1.08;;;9.60;96.00;;;;;;4820888;29;20059;-78
2021/12/17 07:42:16;;;;;;;5.05;1.00;;;9.60;95.80;;;;;;4805171;29;20440;-76
2021/12/17 07:44:51;;;;;;;2.92;0.80;;;9.60;95.80;;;;;;4822679;29;20111;-77
2021/12/17 07:47:24;;;;;;;3.35;0.90;;;9.60;95.80;;;;;;4823648;29;20093;-76
2021/12/17 07:50:10;;;;;;;4.30;0.93;;;9.60;95.70;;;;;;4807906;29;20170;-76
2021/12/17 07:53:12;;;;;;;3.30;1.20;;;9.60;95.70;;;;;;4828673;29;20058;-76
2021/12/17 07:55:53;;;;;;;2.70;0.63;;;9.50;95.70;;;;;;4795517;29;20074;-76
2021/12/17 07:58:22;;;;;;;2.95;0.82;;;9.50;95.80;;;;;;4815594;29;20059;-76
2021/12/17 08:00:49;;;;;;;3.35;0.57;;;9.50;95.80;;;;;;4824293;29;20138;-76
2021/12/17 08:03:16;;;;;;;3.90;0.80;;;9.60;95.80;;;;;;4806089;29;20057;-76
2021/12/17 08:05:55;;;;;;;2.97;1.02;;;9.50;95.80;;;;;;4782193;29;20142;-75
2021/12/17 08:08:24;;;;;;;1.75;0.50;;;9.60;95.80;;;;;;4823679;29;20055;-75
2021/12/17 08:11:10;;;;;;;2.65;0.70;;;9.60;95.80;;;;;;4800871;29;20047;-76
2021/12/17 08:13:42;;;;;;;2.05;0.50;;;9.60;95.80;;;;;;4806621;29;20115;-76
2021/12/17 08:32:02;;;;;;;2.78;0.85;;;9.60;95.70;;;;;;4812506;29;20054;-76
2021/12/17 08:34:38;;;;;;;2.35;0.60;;;9.60;95.70;;;;;;4817175;29;20138;-76
2021/12/17 08:37:07;;;;;;;2.50;0.52;;;9.60;95.70;;;;;;4805541;29;20114;-76
2021/12/17 08:39:35;;;;;;;1.95;0.93;;;9.60;95.70;;;;;;4822238;29;20132;-76
2021/12/17 08:42:21;;;;;;;2.97;0.70;;;9.60;95.60;;;;;;4797871;29;20082;-77
2021/12/17 08:44:49;;;;;;;1.88;0.60;;;9.60;95.70;;;;;;4792131;29;20054;-76
2021/12/17 08:47:36;;;;;;;3.25;0.93;;;9.60;95.70;;;;;;4808257;29;20168;-77
2021/12/17 08:50:07;;;;;;;2.20;0.70;;;9.60;95.70;;;;;;4798820;29;20046;-76
2021/12/17 08:52:34;;;;;;;3.25;0.60;;;9.60;95.70;;;;;;4825153;29;20736;-76
2021/12/17 08:55:03;;;;;;;2.67;0.70;;;9.60;95.70;;;;;;4791583;29;20655;-77
2021/12/17 08:57:34;;;;;;;2.63;0.90;;;9.60;95.70;;;;;;4793925;29;20412;-77
2021/12/17 09:00:06;;;;;;;2.13;0.55;;;9.60;95.60;;;;;;4808974;29;20873;-77
2021/12/17 09:02:59;;;;;;;2.40;0.75;;;9.60;95.60;;;;;;4810074;29;20054;-76
2021/12/17 09:06:00;;;;;;;3.08;0.65;;;9.60;95.60;;;;;;4807373;29;20063;-77
2021/12/17 09:08:35;;;;;;;2.63;0.52;;;9.60;95.60;;;;;;4809052;29;20062;-77
2021/12/17 09:11:04;;;;;;;1.98;0.60;;;9.60;95.60;;;;;;4825224;29;20063;-76
2021/12/17 09:14:26;;;;;;;3.15;1.25;;;9.60;95.60;;;;;;4825583;29;20062;-77
2021/12/17 09:17:09;;;;;;;4.90;0.80;;;9.60;95.60;;;;;;4793549;29;20150;-76
2021/12/17 09:19:38;;;;;;;2.60;0.82;;;9.60;95.60;;;;;;4795016;29;20480;-76
2021/12/17 09:22:14;;;;;;;2.08;0.50;;;9.60;95.60;;;;;;4795806;29;20086;-80
2021/12/17 09:24:50;;;;;;;4.65;0.93;;;9.60;95.60;;;;;;4784503;29;20051;-82
2021/12/17 09:27:19;;;;;;;2.30;1.10;;;9.60;95.60;;;;;;4823747;29;20058;-80
2021/12/17 09:30:21;;;;;;;2.60;0.80;;;9.60;95.60;;;;;;4818639;29;20055;-80
2021/12/17 09:32:48;;;;;;;2.58;0.98;;;9.70;95.60;;;;;;4793213;29;20058;-80
2021/12/17 09:35:16;;;;;;;2.25;0.95;;;9.60;95.50;;;;;;4782118;29;20054;-81
2021/12/17 09:37:43;;;;;;;2.72;0.70;;;9.60;95.40;;;;;;4779463;29;20547;-81
2021/12/17 09:40:12;;;;;;;1.50;0.50;;;9.60;95.40;;;;;;4802865;29;20579;-80
2021/12/17 09:42:42;;;;;;;1.90;0.57;;;9.70;95.40;;;;;;4825810;29;20077;-80
2021/12/17 09:45:10;;;;;;;1.45;0.55;;;9.60;95.40;;;;;;4809171;29;20050;-80
2021/12/17 09:47:37;;;;;;;1.30;0.40;;;9.60;95.40;;;;;;4808151;29;20054;-79
2021/12/17 09:50:06;;;;;;;2.08;0.90;;;9.60;95.50;;;;;;4813198;29;20058;-80
2021/12/17 09:52:37;;;;;;;1.80;0.60;;;9.60;95.40;;;;;;4826380;29;21317;-78
2021/12/17 09:55:07;;;;;;;1.48;0.50;;;9.50;95.40;;;;;;4815817;29;20477;-81
2021/12/17 09:57:37;;;;;;;2.17;0.55;;;9.50;95.40;;;;;;4808971;29;20134;-81
2021/12/17 10:00:11;;;;;;;3.25;0.80;;;9.50;95.40;;;;;;4810280;29;20108;-79
2021/12/17 10:02:40;;;;;;;3.03;0.57;;;9.50;95.40;;;;;;4825323;29;20058;-81
2021/12/17 10:05:15;;;;;;;2.00;0.40;;;9.50;95.40;;;;;;4810654;29;20123;-82
2021/12/17 10:07:56;;;;;;;1.60;0.45;;;9.60;95.40;;;;;;4822167;29;20878;-82
2021/12/17 10:10:38;;;;;;;1.77;0.60;;;9.60;95.40;;;;;;4809980;29;20058;-78
2021/12/17 10:13:14;;;;;;;1.38;0.50;;;9.60;95.30;;;;;;4818156;29;20125;-78
2021/12/17 10:15:44;;;;;;;1.48;0.50;;;9.60;95.30;;;;;;4794617;29;20042;-78
2021/12/17 10:18:11;;;;;;;1.50;0.55;;;9.60;95.30;;;;;;4808293;29;20116;-77
2021/12/17 10:20:53;;;;;;;1.00;0.30;;;9.60;95.20;;;;;;4811425;29;20099;-78
2021/12/17 10:23:22;;;;;;;1.50;0.40;;;9.60;95.20;;;;;;4820616;29;20173;-78
2021/12/17 10:25:49;;;;;;;1.20;0.40;;;9.60;95.20;;;;;;4821082;29;20104;-78
2021/12/17 10:28:17;;;;;;;1.02;0.32;;;9.60;95.40;;;;;;4806740;29;20083;-78
2021/12/17 10:30:51;;;;;;;1.23;0.50;;;9.60;95.10;;;;;;4821568;29;20048;-77
2021/12/17 10:33:21;;;;;;;1.35;0.60;;;9.60;95.10;;;;;;4809567;29;20055;-77
2021/12/17 10:35:50;;;;;;;1.33;0.40;;;9.60;95.20;;;;;;4802024;29;20120;-77
2021/12/17 10:38:22;;;;;;;1.60;0.50;;;9.60;95.40;;;;;;4799736;29;20405;-77
2021/12/17 10:41:01;;;;;;;1.27;0.43;;;9.60;95.10;;;;;;4808732;29;20099;-78
2021/12/17 10:43:44;;;;;;;1.00;0.40;;;9.70;95.10;;;;;;4817144;29;20058;-78
2021/12/17 10:48:55;;;;;;;1.50;0.70;;;9.70;95.00;;;;;;4808664;29;20050;-77
2021/12/17 10:54:20;;;;;;;1.30;0.55;;;9.70;95.00;;;;;;4824842;29;20062;-77
2021/12/17 10:56:52;;;;;;;1.50;0.50;;;9.70;95.10;;;;;;4810974;29;20054;-77
2021/12/17 10:59:25;;;;;;;1.05;0.63;;;9.70;95.00;;;;;;4824899;29;20119;-77
2021/12/17 11:02:00;;;;;;;1.52;0.60;;;9.70;95.00;;;;;;4806781;29;20134;-77
2021/12/17 11:04:28;;;;;;;0.82;0.20;;;9.70;95.00;;;;;;4809072;29;20146;-78
2021/12/17 11:07:03;;;;;;;1.67;0.40;;;9.80;95.00;;;;;;4823134;29;20652;-78
2021/12/17 11:09:45;;;;;;;0.93;0.55;;;9.80;95.00;;;;;;4806897;29;20042;-78
2021/12/17 11:12:33;;;;;;;1.10;0.35;;;9.80;95.00;;;;;;4817524;29;20047;-77
2021/12/17 11:15:20;;;;;;;1.05;0.40;;;9.80;95.00;;;;;;4807751;29;20067;-77
2021/12/17 11:17:54;;;;;;;1.27;0.38;;;9.80;94.90;;;;;;4821694;29;20047;-77
2021/12/17 11:20:40;;;;;;;0.93;0.30;;;9.80;95.00;;;;;;4805363;29;20058;-77
2021/12/17 11:23:14;;;;;;;1.15;0.30;;;9.90;95.00;;;;;;4807217;29;20511;-77
2021/12/17 11:25:47;;;;;;;0.63;0.20;;;9.80;95.00;;;;;;4820349;29;20051;-77
2021/12/17 11:28:16;;;;;;;0.95;0.38;;;9.80;94.90;;;;;;4807612;29;20103;-77
2021/12/17 11:30:45;;;;;;;2.35;0.50;;;9.80;95.00;;;;;;4812748;29;20766;-77
2021/12/17 11:33:13;;;;;;;1.02;0.52;;;9.80;95.00;;;;;;4808025;29;20049;-77
2021/12/17 11:35:44;;;;;;;2.17;0.75;;;9.80;95.00;;;;;;4807909;29;20420;-75
2021/12/17 11:38:29;;;;;;;1.38;0.60;;;9.80;94.90;;;;;;4809921;29;20039;-75
2021/12/17 11:41:11;;;;;;;2.22;0.63;;;9.80;94.90;;;;;;4806736;29;21241;-75
2021/12/17 11:43:59;;;;;;;1.08;0.65;;;9.70;94.90;;;;;;4807860;29;20053;-75
2021/12/17 11:46:31;;;;;;;1.08;0.55;;;9.70;94.90;;;;;;4812762;29;20074;-74
2021/12/17 11:49:03;;;;;;;1.45;0.30;;;9.70;94.90;;;;;;4807453;29;20058;-74
2021/12/17 11:51:35;;;;;;;1.00;0.30;;;9.70;94.90;;;;;;4813076;29;20062;-73
2021/12/17 11:54:09;;;;;;;1.10;0.47;;;9.70;94.90;;;;;;4825664;29;20050;-75
2021/12/17 11:56:46;;;;;;;0.90;0.10;;;9.70;94.90;;;;;;4811130;29;20114;-75
2021/12/17 11:59:28;;;;;;;1.23;0.38;;;9.70;94.80;;;;;;4806807;29;20051;-76
2021/12/17 12:02:01;;;;;;;0.35;0.13;;;9.70;94.80;;;;;;4808712;29;20557;-76
2021/12/17 12:04:31;;;;;;;0.40;0.20;;;9.70;94.80;;;;;;4810327;29;20055;-76
2021/12/17 12:07:28;;;;;;;0.73;0.25;;;9.70;94.80;;;;;;4823111;29;20050;-77
2021/12/17 12:10:04;;;;;;;0.70;0.20;;;9.80;94.70;;;;;;4809153;29;20428;-76
2021/12/17 12:12:34;;;;;;;0.47;0.20;;;9.70;94.70;;;;;;4799573;29;20050;-77
2021/12/17 12:15:16;;;;;;;0.70;0.20;;;9.80;94.70;;;;;;4808714;29;20055;-77
2021/12/17 12:17:57;;;;;;;0.73;0.20;;;9.80;94.60;;;;;;4808556;29;20146;-77
2021/12/17 12:23:29;;;;;;;0.40;0.10;;;9.90;94.50;;;;;;4823078;29;20154;-77
2021/12/17 12:26:02;;;;;;;;;;;9.90;94.50;;;;;;4807665;29;20062;-77
2021/12/17 12:28:44;;;;;;;;;;;10.00;94.50;;;;;;4810058;29;19935;-77
2021/12/17 12:31:19;;;;;;;0.50;0.30;;;9.90;94.50;;;;;;4821216;29;19940;-77
2021/12/17 12:34:02;;;;;;;0.28;0.10;;;9.90;94.50;;;;;;4807686;29;20047;-77
2021/12/17 12:36:50;;;;;;;;;;;10.00;94.40;;;;;;4805753;29;20103;-77
2021/12/17 12:39:20;;;;;;;0.50;0.20;;;10.00;94.50;;;;;;4806729;29;20005;-76
2021/12/17 12:42:11;;;;;;;0.50;0.38;;;10.00;94.40;;;;;;4823588;29;20075;-77
2021/12/17 12:44:44;;;;;;;0.50;0.20;;;10.00;94.30;;;;;;4807545;29;20073;-77
2021/12/17 12:47:50;;;;;;;0.28;0.17;;;10.10;94.30;;;;;;4812199;29;20062;-78
2021/12/17 12:50:24;;;;;;;0.90;0.20;;;10.10;94.20;;;;;;4791039;29;20519;-77
2021/12/17 12:52:56;;;;;;;0.30;0.10;;;10.10;94.20;;;;;;4786993;29;20054;-77
2021/12/17 12:55:36;;;;;;;0.10;0.05;;;10.20;94.20;;;;;;4804860;29;20063;-77
2021/12/17 12:58:16;;;;;;;0.32;0.10;;;10.20;94.10;;;;;;4816537;29;20097;-76
2021/12/17 13:00:53;;;;;;;0.30;0.13;;;10.30;94.20;;;;;;4814910;29;20065;-76
2021/12/17 13:03:29;;;;;;;0.43;0.20;;;10.30;94.20;;;;;;4805840;29;20110;-76
2021/12/17 13:06:01;;;;;;;0.90;0.10;;;10.30;94.10;;;;;;4806757;29;20047;-77
2021/12/17 13:08:33;;;;;;;0.28;0.10;;;10.30;94.10;;;;;;4793777;29;20054;-76
2021/12/17 13:11:06;;;;;;;0.50;0.20;;;10.30;94.10;;;;;;4778603;29;20112;-76
2021/12/17 13:13:51;;;;;;;0.50;0.20;;;10.30;94.00;;;;;;4824313;29;20054;-76
2021/12/17 13:21:59;;;;;;;0.25;0.10;;;10.40;94.10;;;;;;4807887;29;20050;-76
2021/12/17 13:24:29;;;;;;;0.52;0.13;;;10.30;94.00;;;;;;4821578;29;20109;-76
2021/12/17 13:27:00;;;;;;;0.65;0.30;;;10.30;94.00;;;;;;4813339;29;21202;-76
2021/12/17 13:29:34;;;;;;;0.52;0.20;;;10.30;93.90;;;;;;4806504;29;21324;-77
2021/12/17 13:32:09;;;;;;;0.50;0.20;;;10.30;94.00;;;;;;4821081;29;20055;-76
2021/12/17 13:34:44;;;;;;;0.57;0.20;;;10.30;93.90;;;;;;4792310;29;20047;-75
2021/12/17 13:37:13;;;;;;;0.50;0.20;;;10.30;93.90;;;;;;4804678;29;20071;-74
2021/12/17 13:39:52;;;;;;;0.68;0.20;;;10.30;94.00;;;;;;4804845;29;20045;-74
2021/12/17 13:42:26;;;;;;;0.95;0.20;;;10.30;93.90;;;;;;4812362;29;20059;-74
2021/12/17 13:44:55;;;;;;;1.17;0.20;;;10.30;93.90;;;;;;4817686;29;20043;-75
2021/12/17 13:47:29;;;;;;;0.80;0.10;;;10.20;93.90;;;;;;4809121;29;20134;-75
2021/12/17 13:49:56;;;;;;;0.68;0.30;;;10.20;93.90;;;;;;4807459;29;20059;-75
2021/12/17 13:52:25;;;;;;;1.50;0.68;;;10.20;94.00;;;;;;4825460;29;20054;-76
2021/12/17 13:54:54;;;;;;;0.52;0.20;;;10.30;94.00;;;;;;4805902;29;20078;-76
2021/12/17 13:57:25;;;;;;;0.88;0.30;;;10.30;94.00;;;;;;4810352;29;20085;-76
2021/12/17 14:00:00;;;;;;;0.70;0.10;;;10.30;93.90;;;;;;4807423;29;20046;-75
2021/12/17 14:02:38;;;;;;;0.30;0.20;;;10.30;93.90;;;;;;4825650;29;20093;-75
2021/12/17 14:05:10;;;;;;;0.82;0.30;;;10.20;93.90;;;;;;4815343;29;20486;-76
2021/12/17 14:07:38;;;;;;;0.50;0.20;;;10.20;93.90;;;;;;4824415;29;20134;-79
2021/12/17 14:10:14;;;;;;;0.60;0.30;;;10.20;93.90;;;;;;4808596;29;20082;-76
2021/12/17 14:12:42;;;;;;;0.88;0.30;;;10.20;93.90;;;;;;4816757;29;20078;-77
2021/12/17 14:15:34;;;;;;;0.55;0.15;;;10.20;93.90;;;;;;4797899;29;20055;-77
2021/12/17 14:18:06;;;;;;;0.43;0.20;;;10.20;93.90;;;;;;4826436;29;20054;-76
2021/12/17 14:20:40;;;;;;;0.50;0.30;;;10.20;93.90;;;;;;4808975;29;20680;-77
2021/12/17 14:23:14;;;;;;;0.70;0.30;;;10.20;93.90;;;;;;4821255;29;20058;-76
2021/12/17 14:25:47;;;;;;;1.20;0.40;;;10.20;93.80;;;;;;4825846;29;20077;-79
2021/12/17 14:28:25;;;;;;;1.17;0.30;;;10.20;93.90;;;;;;4822446;29;20147;-78
2021/12/17 14:30:59;;;;;;;0.75;0.30;;;10.20;93.90;;;;;;4818906;29;20107;-78
2021/12/17 14:33:35;;;;;;;1.98;0.30;;;10.20;93.90;;;;;;4808674;29;20051;-80
2021/12/17 14:36:06;;;;;;;0.85;0.30;;;10.10;93.80;;;;;;4808446;29;20141;-79
2021/12/17 14:38:37;;;;;;;1.40;0.30;;;10.10;93.80;;;;;;4817340;29;20522;-78
2021/12/17 14:41:07;;;;;;;1.00;0.47;;;10.10;93.80;;;;;;4822084;29;20218;-78
2021/12/17 14:43:45;;;;;;;2.00;0.50;;;10.10;93.80;;;;;;4807384;29;20058;-77
2021/12/17 14:49:04;;;;;;;0.93;0.40;;;10.00;93.80;;;;;;4823955;29;20113;-77
2021/12/17 15:05:25;;;;;;;1.58;0.50;;;10.00;93.80;;;;;;4822982;29;20085;-79
2021/12/17 15:07:56;;;;;;;1.83;0.60;;;10.00;93.80;;;;;;4824841;29;20381;-77
2021/12/17 15:10:25;;;;;;;1.42;0.50;;;10.00;93.80;;;;;;4806893;29;20095;-77
2021/12/17 15:13:00;;;;;;;1.85;0.30;;;9.90;93.80;;;;;;4823256;29;20039;-80
2021/12/17 15:15:29;;;;;;;0.45;0.28;;;10.00;93.90;;;;;;4809728;29;20054;-78
2021/12/17 15:17:58;;;;;;;1.38;0.50;;;10.00;93.90;;;;;;4819714;29;20050;-77
2021/12/17 15:20:30;;;;;;;1.00;0.38;;;10.00;93.90;;;;;;4793561;29;20046;-77
2021/12/17 15:23:03;;;;;;;1.63;0.65;;;10.00;93.90;;;;;;4822621;29;20168;-77
2021/12/17 15:25:32;;;;;;;1.48;0.60;;;10.00;93.80;;;;;;4816064;29;20054;-77
2021/12/17 15:27:59;;;;;;;2.55;0.65;;;9.90;93.80;;;;;;4822905;29;20870;-77
2021/12/17 15:30:30;;;;;;;2.25;1.00;;;9.90;93.80;;;;;;4820277;29;20875;-77
2021/12/17 15:32:58;;;;;;;2.22;0.70;;;9.90;93.80;;;;;;4806988;29;21263;-78
2021/12/17 15:35:28;;;;;;;2.45;0.82;;;9.90;93.80;;;;;;4823871;29;21212;-78
2021/12/17 15:37:57;;;;;;;2.65;0.60;;;9.90;93.80;;;;;;4790549;29;20157;-77
2021/12/17 15:40:29;;;;;;;1.55;0.77;;;9.90;93.80;;;;;;4820633;29;20415;-77
2021/12/17 15:43:02;;;;;;;1.60;0.50;;;9.90;93.80;;;;;;4822614;29;20100;-76
2021/12/17 15:45:37;;;;;;;1.67;0.60;;;9.90;93.80;;;;;;4826839;29;20054;-77
2021/12/17 15:48:09;;;;;;;1.58;0.60;;;9.90;93.80;;;;;;4821638;29;20137;-77
2021/12/17 15:50:57;;;;;;;1.17;0.47;;;9.90;93.80;;;;;;4821873;29;20048;-76
2021/12/17 15:53:24;;;;;;;1.08;0.40;;;9.90;93.90;;;;;;4809043;29;20039;-77
2021/12/17 15:55:51;;;;;;;0.90;0.40;;;9.90;94.10;;;;;;4807934;29;20069;-77
2021/12/17 15:58:19;;;;;;;1.45;0.40;;;9.90;93.90;;;;;;4821896;29;20043;-77
2021/12/17 16:00:48;;;;;;;1.75;0.50;;;9.90;93.90;;;;;;4778631;29;20117;-78
2021/12/17 16:03:20;;;;;;;1.45;0.60;;;9.90;93.90;;;;;;4804613;29;20807;-77
2021/12/17 16:05:49;;;;;;;1.87;0.60;;;9.90;93.90;;;;;;4820286;29;20714;-77
2021/12/17 16:08:16;;;;;;;1.38;0.60;;;9.90;93.90;;;;;;4816243;29;20310;-76
2021/12/17 16:21:41;;;;;;;1.58;0.70;;;9.90;93.80;;;;;;4812395;29;20054;-75
2021/12/17 16:24:08;;;;;;;1.25;0.60;;;9.90;93.80;;;;;;4806136;29;20169;-77
2021/12/17 16:26:35;;;;;;;2.00;0.88;;;9.90;93.90;;;;;;4811556;29;20530;-79
2021/12/17 16:29:03;;;;;;;1.33;0.82;;;9.90;93.80;;;;;;4794962;29;20055;-78
2021/12/17 16:31:33;;;;;;;1.17;0.57;;;9.90;93.80;;;;;;4794869;29;20045;-77
2021/12/17 16:34:03;;;;;;;2.10;0.80;;;9.90;93.80;;;;;;4808157;29;20133;-76
2021/12/17 16:36:33;;;;;;;1.33;0.70;;;9.90;93.90;;;;;;4820463;29;20633;-77
2021/12/17 16:39:03;;;;;;;1.48;0.70;;;9.90;93.90;;;;;;4805944;29;20055;-76
2021/12/17 16:41:30;;;;;;;2.08;0.68;;;9.90;93.90;;;;;;4821924;29;20062;-77
2021/12/17 16:44:05;;;;;;;1.65;0.68;;;10.00;93.80;;;;;;4811321;29;20059;-77
2021/12/17 16:49:11;;;;;;;1.25;0.60;;;9.90;93.80;;;;;;4807931;29;20057;-76
2021/12/17 16:51:39;;;;;;;1.58;0.43;;;9.90;93.80;;;;;;4820709;29;20084;-77
2021/12/17 16:54:08;;;;;;;1.73;0.82;;;9.90;93.80;;;;;;4809231;29;20043;-76
2021/12/17 16:56:35;;;;;;;1.00;0.40;;;10.00;93.90;;;;;;4806655;29;20149;-76
2021/12/17 16:59:03;;;;;;;2.22;0.70;;;10.00;93.80;;;;;;4804691;29;20062;-76
2021/12/17 17:01:34;;;;;;;1.40;0.60;;;10.00;94.10;;;;;;4805044;29;20054;-76
2021/12/17 17:04:01;;;;;;;1.45;0.52;;;9.90;93.80;;;;;;4797202;29;21376;-78
2021/12/17 17:06:34;;;;;;;1.90;0.70;;;10.00;93.90;;;;;;4807309;29;20816;-76
2021/12/17 17:09:07;;;;;;;1.13;0.32;;;10.00;93.90;;;;;;4814580;29;20108;-76